Time;durP1;ratioP1;P1;durP2;ratioP2;P2;SDS_P1;SDS_P2;PMS_P1;PMS_P2;Temp;Humidity;BMP_temperature;BMP_pressure;BME280_temperature;BME280_humidity;BME280_pressure;Samples;Min_cycle;Max_cycle;Signal;HPM_P1;HPM_P2
2023/03/02 00:01:00;;;;;;;59.78;4.60;;;;;;;22.44;52.72;100232.97;7315760;19;129259;-39
2023/03/02 00:03:27;;;;;;;49.53;3.70;;;;;;;22.58;52.28;100230.00;7317267;19;129185;-34
2023/03/02 00:05:53;;;;;;;76.10;6.00;;;;;;;22.75;51.43;100229.41;7315125;19;128834;-43
2023/03/02 00:08:18;;;;;;;35.90;3.58;;;;;;;22.88;51.92;100231.78;7315166;19;130488;-41
2023/03/02 00:10:44;;;;;;;40.33;4.18;;;;;;;23.05;51.16;100239.03;7316401;19;129036;-37
2023/03/02 00:13:11;;;;;;;66.55;4.72;;;;;;;23.12;51.00;100234.94;7314120;19;129251;-41
2023/03/02 00:15:36;;;;;;;17.95;2.72;;;;;;;23.11;50.83;100233.25;7315351;19;129395;-39
2023/03/02 00:18:02;;;;;;;59.27;4.50;;;;;;;23.02;50.83;100218.34;7315722;19;129610;-40
2023/03/02 00:20:27;;;;;;;39.42;3.50;;;;;;;22.98;50.87;100222.19;7314742;19;129414;-41
2023/03/02 00:22:52;;;;;;;51.23;4.10;;;;;;;22.95;51.62;100222.44;7316950;19;129266;-42
2023/03/02 00:25:18;;;;;;;21.60;2.85;;;;;;;22.88;51.59;100216.06;7313953;19;128949;-43
2023/03/02 00:27:44;;;;;;;35.07;3.37;;;;;;;22.68;51.65;100195.97;7314729;19;128986;-40
2023/03/02 00:30:11;;;;;;;59.92;4.82;;;;;;;22.69;52.01;100218.63;7313615;19;129465;-41
2023/03/02 00:32:36;;;;;;;49.00;4.10;;;;;;;22.63;51.88;100211.28;7315705;19;129340;-43
2023/03/02 00:35:02;;;;;;;134.20;8.87;;;;;;;22.54;52.81;100209.44;7314223;19;129139;-38
2023/03/02 00:37:27;;;;;;;37.97;3.70;;;;;;;22.47;52.84;100206.50;7315122;19;129255;-40
2023/03/02 00:39:53;;;;;;;52.60;3.92;;;;;;;22.41;52.70;100212.22;7312902;19;129278;-41
2023/03/02 00:42:19;;;;;;;41.80;3.90;;;;;;;22.38;53.34;100202.03;7314232;19;129216;-42
2023/03/02 00:44:45;;;;;;;31.05;3.13;;;;;;;22.33;53.18;100203.38;7314434;19;128867;-42
2023/03/02 00:47:10;;;;;;;45.97;3.97;;;;;;;22.25;53.09;100195.31;7313090;19;129074;-36
2023/03/02 00:49:35;;;;;;;52.95;4.30;;;;;;;22.25;53.93;100195.31;7311871;19;129434;-40
2023/03/02 00:52:02;;;;;;;19.15;2.72;;;;;;;22.19;54.18;100201.09;7315697;19;129100;-41
2023/03/02 00:54:28;;;;;;;30.92;3.35;;;;;;;22.18;53.82;100199.44;7312372;19;129352;-41
2023/03/02 00:56:53;;;;;;;32.97;3.05;;;;;;;22.16;54.25;100196.94;7314776;19;128979;-41
2023/03/02 00:59:27;;;;;;;61.25;4.35;;;;;;;22.09;54.48;100189.72;7310223;19;130150;-38
2023/03/02 01:01:58;;;;;;;41.30;3.70;;;;;;;22.10;54.97;100191.41;7316528;19;129807;-40
2023/03/02 01:04:29;;;;;;;78.70;5.63;;;;;;;22.08;55.99;100186.25;7313454;19;128988;-44
2023/03/02 01:06:57;;;;;;;35.08;3.50;;;;;;;22.08;56.09;100185.44;7313722;19;128961;-34
2023/03/02 01:09:22;;;;;;;44.85;3.88;;;;;;;22.00;55.65;100185.25;7313518;19;129961;-34
2023/03/02 01:11:48;;;;;;;51.00;3.83;;;;;;;21.95;55.98;100168.13;7315022;19;129060;-40
2023/03/02 01:14:14;;;;;;;34.33;3.33;;;;;;;22.01;56.48;100179.91;7313238;19;129385;-35
2023/03/02 01:16:39;;;;;;;32.57;3.13;;;;;;;22.01;56.41;100171.19;7311431;19;128816;-41
2023/03/02 01:19:04;;;;;;;48.83;3.83;;;;;;;21.98;56.08;100165.25;7313220;19;129055;-38
2023/03/02 01:21:30;;;;;;;46.92;3.78;;;;;;;21.92;55.28;100160.53;7312355;19;129053;-42
2023/03/02 01:23:55;;;;;;;58.47;4.45;;;;;;;21.95;55.14;100168.13;7314967;19;129323;-38
2023/03/02 01:26:20;;;;;;;33.53;3.60;;;;;;;21.93;54.96;100167.44;7312316;19;128945;-39
2023/03/02 01:28:46;;;;;;;49.13;3.90;;;;;;;21.93;54.15;100164.81;7311919;19;129365;-39
2023/03/02 01:31:11;;;;;;;15.20;2.75;;;;;;;21.86;54.26;100140.13;7311679;19;129753;-41
2023/03/02 01:33:36;;;;;;;46.13;4.20;;;;;;;22.09;54.10;100158.28;7310490;19;128949;-35
2023/03/02 01:36:02;;;;;;;35.55;3.55;;;;;;;22.13;53.68;100136.13;7312863;19;129283;-38
2023/03/02 01:38:27;;;;;;;51.92;4.32;;;;;;;22.38;53.22;100146.19;7313462;19;130231;-40
2023/03/02 01:40:53;;;;;;;60.83;4.50;;;;;;;22.52;53.07;100156.31;7312699;19;129223;-37
2023/03/02 01:43:18;;;;;;;30.67;3.30;;;;;;;22.65;52.13;100151.69;7313227;19;129584;-38
2023/03/02 01:45:51;;;;;;;28.35;3.30;;;;;;;22.82;52.06;100151.06;7313242;19;128932;-38
2023/03/02 01:48:22;;;;;;;64.30;4.57;;;;;;;22.98;51.52;100149.59;7312045;19;129386;-41
2023/03/02 01:50:48;;;;;;;39.15;3.28;;;;;;;23.03;51.38;100146.56;7314192;19;129343;-35
2023/03/02 01:53:14;;;;;;;42.93;3.80;;;;;;;23.00;51.03;100152.06;7311928;19;129591;-39
2023/03/02 01:55:43;;;;;;;14.68;2.60;;;;;;;22.94;51.76;100148.19;7311966;19;130928;-40
2023/03/02 01:58:10;;;;;;;45.17;3.53;;;;;;;22.90;51.04;100148.59;7312971;19;129873;-39
2023/03/02 02:00:38;;;;;;;51.05;4.10;;;;;;;22.82;51.75;100137.97;7312709;19;129421;-41
2023/03/02 02:03:19;;;;;;;30.48;3.35;;;;;;;22.73;52.17;100149.22;7314723;19;128992;-40
2023/03/02 02:05:47;;;;;;;40.70;3.65;;;;;;;;;;7312111;19;129674;-45
2023/03/02 02:08:12;;;;;;;33.63;3.35;;;;;;;22.52;52.18;100151.91;7311811;19;131130;-38
2023/03/02 02:10:38;;;;;;;42.27;3.53;;;;;;;22.41;52.62;100133.63;7313110;19;129079;-42
2023/03/02 02:13:08;;;;;;;46.47;3.93;;;;;;;22.36;52.90;100145.50;7312028;19;129354;-43
2023/03/02 02:15:33;;;;;;;34.05;3.22;;;;;;;22.30;53.01;100146.84;7312463;19;128915;-44
2023/03/02 02:17:59;;;;;;;74.35;5.30;;;;;;;22.22;53.12;100143.19;7310876;19;129417;-36
2023/03/02 02:20:32;;;;;;;49.33;3.97;;;;;;;22.17;53.45;100140.97;7311761;19;129835;-38
2023/03/02 02:23:24;;;;;;;44.15;3.85;;;;;;;22.13;54.25;100149.22;7313201;19;128843;-43
2023/03/02 02:25:54;;;;;;;67.00;4.90;;;;;;;21.98;54.31;100117.31;7312226;19;129991;-39
2023/03/02 02:28:56;;;;;;;37.60;3.55;;;;;;;22.04;54.48;100142.13;7313155;19;130078;-37
2023/03/02 02:31:28;;;;;;;46.60;3.72;;;;;;;22.03;55.41;100137.88;7310059;19;129412;-38
2023/03/02 02:33:59;;;;;;;43.17;3.47;;;;;;;21.94;55.28;100121.97;7311494;19;129178;-42
2023/03/02 02:36:31;;;;;;;72.57;5.38;;;;;;;21.93;56.04;100122.13;7309040;19;129562;-38
2023/03/02 02:39:01;;;;;;;35.67;3.42;;;;;;;21.92;55.11;100121.28;7310535;19;130032;-41
2023/03/02 02:41:30;;;;;;;39.03;3.28;;;;;;;21.87;55.83;100115.59;7312301;19;129613;-35
2023/03/02 02:43:56;;;;;;;56.65;4.53;;;;;;;21.93;55.83;100128.16;7311744;19;129588;-37
2023/03/02 02:46:22;;;;;;;36.35;3.42;;;;;;;21.90;54.99;100123.19;7311602;19;129328;-41
2023/03/02 02:48:47;;;;;;;25.65;2.95;;;;;;;21.86;55.05;100108.72;7309916;19;129358;-39
2023/03/02 02:51:22;;;;;;;42.77;4.03;;;;;;;21.94;54.11;100115.91;7311040;19;129310;-40
2023/03/02 02:53:58;;;;;;;65.43;4.80;;;;;;;22.11;54.11;100114.47;7310378;19;129526;-40
2023/03/02 02:56:27;;;;;;;42.70;3.55;;;;;;;22.22;53.52;100119.63;7311579;19;129191;-39
2023/03/02 02:58:55;;;;;;;30.38;3.28;;;;;;;22.37;52.87;100118.31;7309622;19;129667;-36
2023/03/02 03:01:24;;;;;;;11.45;2.42;;;;;;;22.54;52.76;100115.94;7310958;19;129518;-40
2023/03/02 03:03:56;;;;;;;53.00;4.45;;;;;;;22.70;52.55;100107.56;7311749;19;129225;-39
2023/03/02 03:06:26;;;;;;;53.15;4.00;;;;;;;22.86;51.80;100108.72;7311678;19;129314;-40
2023/03/02 03:08:56;;;;;;;40.88;3.70;;;;;;;22.98;51.27;100106.78;7310501;19;129784;-42
2023/03/02 03:11:25;;;;;;;32.88;3.40;;;;;;;23.15;50.74;100103.50;7310835;19;130199;-42
2023/03/02 03:14:02;;;;;;;44.80;3.83;;;;;;;23.13;50.65;100110.69;7309276;19;129619;-38
2023/03/02 03:16:29;;;;;;;32.15;3.33;;;;;;;23.13;51.23;100097.56;7310191;19;128748;-40
2023/03/02 03:18:58;;;;;;;62.88;4.53;;;;;;;23.06;51.06;100104.31;7309829;19;128947;-40
2023/03/02 03:21:24;;;;;;;36.75;3.33;;;;;;;22.98;50.85;100112.88;7311244;19;129236;-44
2023/03/02 03:23:49;;;;;;;47.87;4.13;;;;;;;22.87;51.52;100107.72;7310372;19;129037;-36
2023/03/02 03:26:15;;;;;;;43.67;3.85;;;;;;;22.76;51.63;100104.41;7310384;19;129343;-39
2023/03/02 03:28:41;;;;;;;51.88;3.78;;;;;;;22.65;52.07;100110.59;7307596;19;129478;-40
2023/03/02 03:31:06;;;;;;;22.63;2.60;;;;;;;22.46;52.42;100094.75;7310144;19;129722;-42
2023/03/02 03:33:31;;;;;;;50.47;4.00;;;;;;;22.47;52.81;100112.16;7308407;19;129031;-41
2023/03/02 03:35:57;;;;;;;38.65;3.40;;;;;;;22.39;52.93;100116.41;7308665;19;129159;-37
2023/03/02 03:38:22;;;;;;;101.50;6.50;;;;;;;22.30;53.43;100114.56;7308843;19;129799;-42
2023/03/02 03:40:47;;;;;;;58.85;4.32;;;;;;;22.24;53.82;100104.63;7309261;19;129224;-38
2023/03/02 03:43:14;;;;;;;46.33;3.83;;;;;;;22.15;53.52;100115.91;7310566;19;129468;-39
2023/03/02 03:45:39;;;;;;;60.23;4.60;;;;;;;22.12;54.03;100110.88;7309503;19;129725;-35
2023/03/02 03:48:05;;;;;;;38.17;3.38;;;;;;;21.98;54.32;100102.41;7310133;19;129165;-40
2023/03/02 03:50:31;;;;;;;34.28;2.90;;;;;;;22.04;54.67;100113.34;7307585;19;130313;-42
2023/03/02 03:52:57;;;;;;;26.60;2.63;;;;;;;22.03;54.73;100112.53;7310319;19;128864;-42
2023/03/02 03:55:22;;;;;;;55.03;4.22;;;;;;;22.00;54.80;100106.72;7306688;19;129060;-39
2023/03/02 03:57:48;;;;;;;50.08;3.92;;;;;;;21.94;55.49;100105.44;7316526;19;129065;-44
2023/03/02 04:00:15;;;;;;;10.68;2.25;;;;;;;21.92;55.62;100108.19;7315413;19;129386;-42
2023/03/02 04:02:41;;;;;;;31.33;3.15;;;;;;;21.93;54.47;100101.19;7318066;19;130194;-38
2023/03/02 04:05:08;;;;;;;84.10;6.30;;;;;;;21.88;54.84;100104.16;7316948;19;129273;-38
2023/03/02 04:07:35;;;;;;;39.97;3.63;;;;;;;21.90;54.94;100104.88;7318053;19;130004;-43
2023/03/02 04:10:03;;;;;;;47.03;3.90;;;;;;;21.97;54.24;100102.56;7312183;19;130148;-37
2023/03/02 04:12:30;;;;;;;31.08;3.25;;;;;;;22.10;53.68;100115.47;7315689;19;129582;-38
2023/03/02 04:14:56;;;;;;;80.50;5.78;;;;;;;22.20;54.06;100113.69;7313229;19;129082;-40
2023/03/02 04:17:22;;;;;;;55.33;4.05;;;;;;;22.33;53.57;100106.47;7316332;19;129224;-38
2023/03/02 04:19:47;;;;;;;14.77;2.25;;;;;;;22.52;52.82;100106.50;7314133;19;131415;-41
2023/03/02 04:22:14;;;;;;;38.50;3.30;;;;;;;22.56;52.57;100087.00;7315988;19;130069;-39
2023/03/02 04:24:39;;;;;;;72.03;4.78;;;;;;;22.75;51.68;100100.97;7315503;19;129065;-39
2023/03/02 04:27:04;;;;;;;38.97;3.47;;;;;;;22.93;51.23;100106.38;7313885;19;130530;-39
2023/03/02 04:29:31;;;;;;;32.88;3.25;;;;;;;23.02;51.74;100105.56;7314237;19;129420;-40
2023/03/02 04:31:56;;;;;;;12.35;2.30;;;;;;;23.16;50.59;100105.16;7315629;19;129013;-42
2023/03/02 04:34:24;;;;;;;55.20;4.40;;;;;;;23.15;50.59;100103.50;7313515;19;128945;-39
2023/03/02 04:36:50;;;;;;;38.05;3.47;;;;;;;23.16;50.57;100100.75;7315858;19;129100;-41
2023/03/02 04:39:17;;;;;;;36.00;3.22;;;;;;;23.22;50.41;100104.63;7314079;19;129498;-38
2023/03/02 04:41:43;;;;;;;;;;;;;;;23.38;50.18;100104.09;7314991;19;129247;-40
2023/03/02 04:44:08;;;;;;;56.03;4.13;;;;;;;23.70;49.14;100105.44;7315584;19;129619;-44
2023/03/02 04:46:34;;;;;;;73.18;5.15;;;;;;;23.92;48.43;100089.34;7314949;19;129145;-41
2023/03/02 04:48:59;;;;;;;40.90;3.35;;;;;;;24.31;48.08;100096.16;7310353;19;130135;-39
2023/03/02 04:51:31;;;;;;;43.97;3.87;;;;;;;24.44;47.66;100086.13;7313143;19;130480;-40
2023/03/02 04:54:01;;;;;;;46.95;3.90;;;;;;;24.73;46.66;100100.94;7313442;19;129037;-39
2023/03/02 04:56:27;;;;;;;39.28;3.30;;;;;;;24.87;46.57;100100.47;7314383;19;130441;-39
2023/03/02 04:58:54;;;;;;;27.70;3.20;;;;;;;24.85;46.48;100084.00;7313869;19;129173;-39
2023/03/02 05:01:20;;;;;;;32.95;3.28;;;;;;;24.95;46.38;100095.28;7314491;19;129053;-43
2023/03/02 05:03:45;;;;;;;58.90;3.93;;;;;;;25.09;46.07;100098.22;7312565;19;129538;-44
2023/03/02 05:06:11;;;;;;;49.37;4.00;;;;;;;25.17;45.63;100100.09;7313714;19;129815;-40
2023/03/02 05:08:37;;;;;;;30.40;2.87;;;;;;;25.19;45.72;100103.41;7307256;19;129220;-36
2023/03/02 05:11:03;;;;;;;33.70;3.10;;;;;;;25.27;45.37;100090.34;7314387;19;130691;-38
2023/03/02 05:13:29;;;;;;;47.45;4.05;;;;;;;25.27;45.65;100091.13;7313825;19;129578;-40
2023/03/02 05:15:56;;;;;;;33.27;3.13;;;;;;;25.25;45.87;100087.03;7315300;19;128962;-40
2023/03/02 05:18:22;;;;;;;33.55;3.25;;;;;;;25.30;45.75;100090.03;7314118;19;129674;-39
2023/03/02 05:20:49;;;;;;;40.60;3.33;;;;;;;25.29;45.80;100093.63;7314444;19;129376;-41
2023/03/02 05:23:22;;;;;;;56.80;4.07;;;;;;;25.28;45.68;100086.72;7314802;19;129252;-42
2023/03/02 05:25:53;;;;;;;39.58;3.50;;;;;;;25.25;45.70;100082.59;7311318;19;129899;-45
2023/03/02 05:28:19;;;;;;;31.80;2.80;;;;;;;25.33;45.78;100080.03;7313107;19;130029;-41
2023/03/02 05:30:46;;;;;;;35.90;3.20;;;;;;;25.31;45.67;100071.44;7313930;19;128947;-43
2023/03/02 05:33:11;;;;;;;78.65;5.63;;;;;;;25.29;45.88;100075.19;7310022;19;130540;-39
2023/03/02 05:35:37;;;;;;;61.87;4.33;;;;;;;25.29;45.64;100083.09;7312574;19;129039;-39
2023/03/02 05:38:03;;;;;;;35.50;3.20;;;;;;;25.27;45.37;100085.88;7314636;19;129650;-42
2023/03/02 05:40:28;;;;;;;13.77;2.60;;;;;;;25.30;45.37;100082.13;7313027;19;129008;-38
2023/03/02 05:42:53;;;;;;;20.33;2.40;;;;;;;25.18;45.55;100084.16;7312968;19;129463;-40
2023/03/02 05:45:24;;;;;;;34.87;3.10;;;;;;;24.99;45.84;100075.59;7313065;19;129633;-41
2023/03/02 05:47:49;;;;;;;36.80;3.55;;;;;;;24.88;46.83;100088.94;7313801;19;129749;-41
2023/03/02 05:50:15;;;;;;;30.97;2.67;;;;;;;24.73;47.02;100090.44;7314186;19;129093;-40
2023/03/02 05:52:41;;;;;;;37.43;3.20;;;;;;;24.55;47.01;100093.00;7314677;19;128784;-42
2023/03/02 05:55:07;;;;;;;80.00;5.77;;;;;;;24.52;47.49;100087.19;7308767;19;129925;-38
2023/03/02 05:57:33;;;;;;;65.83;4.50;;;;;;;24.28;47.72;100080.69;7309847;19;129370;-40
2023/03/02 05:59:58;;;;;;;35.05;2.95;;;;;;;24.26;47.89;100093.13;7311038;19;129360;-39
2023/03/02 06:02:24;;;;;;;85.33;5.53;;;;;;;24.14;48.56;100099.56;7308626;19;129503;-39
2023/03/02 06:04:49;;;;;;;30.53;3.00;;;;;;;24.10;48.60;100105.22;7312112;19;129534;-42
2023/03/02 06:07:15;;;;;;;52.57;4.13;;;;;;;24.08;48.39;100100.09;7312186;19;131045;-41
2023/03/02 06:09:40;;;;;;;33.40;3.07;;;;;;;24.05;48.79;100104.81;7309534;19;130510;-38
2023/03/02 06:12:07;;;;;;;45.13;3.47;;;;;;;24.05;49.13;100100.41;7313096;19;129167;-39
2023/03/02 06:14:33;;;;;;;;;;;;;;;24.05;48.49;100105.66;7311047;19;129790;-41
2023/03/02 06:16:59;;;;;;;42.47;3.80;;;;;;;24.10;48.65;100097.34;7309281;19;130498;-38
2023/03/02 06:19:24;;;;;;;32.20;3.20;;;;;;;24.09;48.80;100111.47;7308862;19;128964;-42
2023/03/02 06:21:49;;;;;;;57.93;3.97;;;;;;;24.03;49.02;100096.28;7313079;19;129657;-40
2023/03/02 06:24:15;;;;;;;33.73;3.07;;;;;;;24.15;48.36;100110.88;7311670;19;129074;-38
2023/03/02 06:26:40;;;;;;;51.93;4.10;;;;;;;24.16;48.75;100112.53;7309774;19;129429;-40
2023/03/02 06:29:06;;;;;;;34.05;3.10;;;;;;;24.23;48.33;100111.81;7311100;19;129426;-37
2023/03/02 06:31:32;;;;;;;193.60;11.37;;;;;;;24.14;48.64;100096.94;7308803;19;129390;-39
2023/03/02 06:33:58;;;;;;;31.42;3.03;;;;;;;24.26;48.40;100102.84;7311082;19;130110;-35
2023/03/02 06:36:23;;;;;;;35.83;3.33;;;;;;;24.29;48.46;100108.63;7311186;19;129397;-41
2023/03/02 06:38:49;;;;;;;21.95;2.53;;;;;;;24.32;47.91;100108.34;7309271;19;129412;-41
2023/03/02 06:41:14;;;;;;;56.20;4.07;;;;;;;24.30;47.88;100105.00;7313257;19;129074;-38
2023/03/02 06:43:40;;;;;;;109.00;7.17;;;;;;;24.21;48.04;100111.13;7309216;19;129487;-46
2023/03/02 06:46:05;;;;;;;36.47;3.07;;;;;;;24.09;48.78;100101.78;7308935;19;130092;-43
2023/03/02 06:48:31;;;;;;;40.60;3.27;;;;;;;23.98;49.08;100101.94;7309803;19;129233;-42
2023/03/02 06:50:56;;;;;;;46.97;3.58;;;;;;;23.91;48.84;100098.22;7311136;19;129016;-40
2023/03/02 06:53:22;;;;;;;39.23;3.47;;;;;;;23.87;49.36;100102.09;7310484;19;129512;-39
2023/03/02 06:55:48;;;;;;;35.00;3.40;;;;;;;23.82;49.80;100098.22;7307532;19;129880;-38
2023/03/02 06:58:14;;;;;;;65.35;4.32;;;;;;;23.67;49.43;100084.72;7310546;19;129444;-39
2023/03/02 07:00:39;;;;;;;56.87;4.20;;;;;;;23.72;49.97;100095.63;7311045;19;129064;-42
2023/03/02 07:03:05;;;;;;;5.68;1.83;;;;;;;23.72;49.70;100097.41;7311467;19;129604;-39
2023/03/02 07:05:34;;;;;;;33.53;3.10;;;;;;;23.74;50.05;100087.59;7310703;19;129834;-37
2023/03/02 07:08:00;;;;;;;55.10;3.90;;;;;;;23.79;49.79;100093.25;7311651;19;129253;-39
2023/03/02 07:10:25;;;;;;;39.50;3.50;;;;;;;23.81;49.67;100088.69;7312379;19;128867;-42
2023/03/02 07:12:52;;;;;;;31.17;2.88;;;;;;;23.90;49.71;100096.53;7311399;19;130203;-38
2023/03/02 07:15:18;;;;;;;39.90;3.47;;;;;;;23.92;49.43;100085.88;7307767;19;129635;-36
2023/03/02 07:17:44;;;;;;;50.50;3.93;;;;;;;24.01;49.18;100101.69;7310769;19;129788;-37
2023/03/02 07:20:12;;;;;;;34.55;3.53;;;;;;;24.04;49.23;100093.50;7312590;19;129403;-38
2023/03/02 07:22:38;;;;;;;34.08;2.95;;;;;;;24.16;48.63;100096.78;7311805;19;129245;-36
2023/03/02 07:25:04;;;;;;;70.55;5.20;;;;;;;24.16;48.39;100091.53;7309709;19;129558;-42
2023/03/02 07:27:30;;;;;;;52.53;3.80;;;;;;;24.20;49.05;100098.97;7310882;19;129513;-37
2023/03/02 07:29:56;;;;;;;19.83;2.57;;;;;;;24.25;48.35;100094.13;7308111;19;129141;-41
2023/03/02 07:32:21;;;;;;;36.47;3.20;;;;;;;24.20;48.69;100087.63;7317361;19;130275;-39
2023/03/02 07:34:46;;;;;;;22.47;2.90;;;;;;;24.39;48.32;100098.06;7315590;19;129584;-42
2023/03/02 07:37:12;;;;;;;49.30;3.77;;;;;;;24.38;48.40;100102.47;7316688;19;128873;-38
2023/03/02 07:39:37;;;;;;;28.92;2.78;;;;;;;24.48;48.24;100096.38;7316243;19;129013;-37
2023/03/02 07:42:03;;;;;;;35.40;3.58;;;;;;;24.46;47.69;100102.59;7317445;19;129992;-40
2023/03/02 07:44:29;;;;;;;19.50;2.57;;;;;;;24.37;48.40;100086.88;7316659;19;129343;-39
2023/03/02 07:46:55;;;;;;;52.60;3.80;;;;;;;24.27;48.46;100086.91;7317235;19;128804;-40
2023/03/02 07:49:21;;;;;;;44.90;3.73;;;;;;;24.14;48.73;100089.03;7316092;19;128812;-37
2023/03/02 07:51:46;;;;;;;34.53;3.10;;;;;;;24.01;49.06;100085.06;7317244;19;129257;-38
2023/03/02 07:54:11;;;;;;;34.53;2.83;;;;;;;23.92;49.09;100088.50;7314728;19;129994;-41
2023/03/02 07:56:37;;;;;;;48.57;3.77;;;;;;;23.84;49.68;100086.63;7316303;19;128892;-40
2023/03/02 07:59:02;;;;;;;54.37;4.53;;;;;;;23.81;49.19;100086.91;7312715;19;130245;-38
2023/03/02 08:01:28;;;;;;;34.07;3.10;;;;;;;23.81;49.89;100084.28;7317434;19;129887;-41
2023/03/02 08:03:53;;;;;;;44.63;3.50;;;;;;;23.86;49.18;100089.94;7317118;19;129702;-38
2023/03/02 08:06:21;;;;;;;46.90;3.83;;;;;;;23.91;49.23;100092.13;7314677;19;129044;-43
2023/03/02 08:08:47;;;;;;;16.17;2.37;;;;;;;23.98;49.30;100094.06;7315833;19;128930;-37
2023/03/02 08:11:15;;;;;;;28.55;3.15;;;;;;;24.01;48.78;100093.78;7316366;19;129752;-39
2023/03/02 08:13:41;;;;;;;53.80;4.20;;;;;;;24.15;48.83;100100.34;7315063;19;131033;-41
2023/03/02 08:16:08;;;;;;;27.13;2.80;;;;;;;24.12;48.80;100100.66;7316620;19;129347;-37
2023/03/02 08:18:33;;;;;;;;;;;;;;;24.16;49.09;100102.03;7314528;19;130767;-38
2023/03/02 08:20:59;;;;;;;35.47;3.20;;;;;;;24.23;49.00;100103.94;7315425;19;129765;-42
2023/03/02 08:23:25;;;;;;;24.87;2.53;;;;;;;24.22;48.72;100081.25;7316084;19;129091;-38
2023/03/02 08:25:52;;;;;;;42.38;3.67;;;;;;;24.38;48.24;100102.47;7316279;19;129238;-38
2023/03/02 08:28:18;;;;;;;22.73;2.65;;;;;;;24.35;48.34;100102.78;7316333;19;128925;-40
2023/03/02 08:30:44;;;;;;;32.13;2.95;;;;;;;24.36;48.64;100107.06;7316939;19;130800;-39
2023/03/02 08:33:09;;;;;;;49.40;3.73;;;;;;;24.27;48.55;100102.69;7315735;19;129441;-42
2023/03/02 08:35:35;;;;;;;40.10;3.37;;;;;;;24.13;48.52;100097.88;7314215;19;128925;-36
2023/03/02 08:38:00;;;;;;;35.90;3.40;;;;;;;24.02;49.05;100100.69;7316184;19;129124;-37
2023/03/02 08:40:25;;;;;;;29.50;2.73;;;;;;;23.89;49.48;100105.41;7315870;19;129455;-40
2023/03/02 08:42:56;;;;;;;62.92;4.43;;;;;;;23.80;49.73;100090.47;7313122;19;129603;-38
2023/03/02 08:45:24;;;;;;;37.05;3.33;;;;;;;23.66;49.80;100076.97;7314872;19;130016;-41
2023/03/02 08:47:52;;;;;;;43.30;3.90;;;;;;;23.71;50.05;100085.25;7316146;19;129502;-40
2023/03/02 08:50:17;;;;;;;36.15;3.35;;;;;;;23.72;50.13;100087.75;7312346;19;130637;-41
2023/03/02 08:52:43;;;;;;;44.57;3.77;;;;;;;23.77;49.70;100089.94;7314889;19;129174;-43
2023/03/02 08:55:09;;;;;;;56.13;4.18;;;;;;;23.82;49.65;100082.47;7312409;19;129229;-42
2023/03/02 08:57:34;;;;;;;38.80;3.40;;;;;;;23.87;49.86;100070.56;7315121;19;128931;-39
2023/03/02 09:00:00;;;;;;;43.33;3.53;;;;;;;23.90;49.04;100059.78;7312273;19;129288;-35
2023/03/02 09:02:25;;;;;;;54.93;3.90;;;;;;;24.00;48.96;100080.78;7314678;19;129123;-44
2023/03/02 09:04:51;;;;;;;60.35;4.45;;;;;;;24.11;48.80;100078.81;7314872;19;129117;-42
2023/03/02 09:07:16;;;;;;;35.00;2.93;;;;;;;24.16;49.36;100073.94;7315897;19;129504;-40
2023/03/02 09:09:42;;;;;;;33.90;3.07;;;;;;;24.20;48.59;100067.44;7310738;19;130705;-46
2023/03/02 09:12:07;;;;;;;57.00;4.07;;;;;;;24.22;49.02;100070.75;7314076;19;129127;-41
2023/03/02 09:14:33;;;;;;;18.70;2.57;;;;;;;24.17;48.94;100056.38;7313684;19;128968;-38
2023/03/02 09:16:58;;;;;;;35.30;3.08;;;;;;;24.16;48.80;100063.44;7314363;19;129517;-40
2023/03/02 09:19:23;;;;;;;31.75;3.13;;;;;;;24.11;49.20;100068.28;7311507;19;129737;-40
2023/03/02 09:21:49;;;;;;;54.80;3.90;;;;;;;24.03;48.93;100067.38;7314702;19;129071;-43
2023/03/02 09:24:14;;;;;;;15.60;2.20;;;;;;;23.95;49.83;100068.06;7314567;19;129227;-39
2023/03/02 09:26:40;;;;;;;45.38;3.67;;;;;;;23.78;49.77;100066.19;7313228;19;128968;-38
2023/03/02 09:29:06;;;;;;;38.37;3.33;;;;;;;23.67;49.89;100068.97;7312806;19;130659;-42
2023/03/02 09:31:32;;;;;;;30.13;2.90;;;;;;;23.56;50.16;100063.88;7311783;19;129515;-40
2023/03/02 09:33:57;;;;;;;18.27;2.37;;;;;;;23.50;50.71;100061.81;7314947;19;128975;-40
2023/03/02 09:36:24;;;;;;;17.87;2.23;;;;;;;23.40;50.86;100050.50;7313443;19;130061;-41
2023/03/02 09:38:50;;;;;;;38.40;3.33;;;;;;;23.51;50.85;100062.63;7312855;19;129673;-42
2023/03/02 09:41:18;;;;;;;55.17;4.00;;;;;;;23.54;50.84;100063.19;7312989;19;129750;-39
2023/03/02 09:43:56;;;;;;;32.63;3.00;;;;;;;23.60;50.14;100056.56;7314803;19;128839;-40
2023/03/02 09:46:33;;;;;;;34.08;3.10;;;;;;;23.69;50.32;100056.53;7313479;19;129215;-37
2023/03/02 09:48:58;;;;;;;;;;;;;;;23.71;50.48;100064.25;7313664;19;129076;-39
2023/03/02 09:51:23;;;;;;;45.53;3.80;;;;;;;23.80;49.99;100058.16;7313181;19;129498;-41
2023/03/02 09:54:02;;;;;;;52.27;3.63;;;;;;;23.96;49.15;100059.22;7311734;19;129024;-40
2023/03/02 09:56:27;;;;;;;32.42;2.80;;;;;;;23.90;49.49;100044.00;7313650;19;128984;-42
2023/03/02 09:59:03;;;;;;;32.97;2.90;;;;;;;24.09;49.57;100059.75;7312662;19;129131;-38
2023/03/02 10:01:36;;;;;;;32.67;2.85;;;;;;;24.07;49.26;100061.69;7311350;19;129912;-41
2023/03/02 10:04:14;;;;;;;49.58;4.00;;;;;;;24.03;49.30;100065.56;7312986;19;129781;-43
2023/03/02 10:06:39;;;;;;;63.05;4.35;;;;;;;23.94;49.60;100061.16;7312238;19;129282;-42
2023/03/02 10:09:05;;;;;;;29.83;2.73;;;;;;;23.80;49.95;100063.41;7312160;19;129237;-39
2023/03/02 10:11:49;;;;;;;32.83;3.00;;;;;;;23.68;49.94;100057.50;7312756;19;129236;-40
2023/03/02 10:14:23;;;;;;;45.72;3.35;;;;;;;23.56;50.95;100056.00;7310509;19;129358;-38
2023/03/02 10:17:21;;;;;;;38.08;3.28;;;;;;;23.46;51.12;100055.19;7311705;19;128982;-40
2023/03/02 10:19:55;;;;;;;36.53;3.08;;;;;;;23.37;51.33;100042.91;7308173;19;129430;-38
2023/03/02 10:22:32;;;;;;;34.22;3.05;;;;;;;23.35;51.32;100044.00;7313251;19;129727;-40
2023/03/02 10:25:23;;;;;;;129.73;8.27;;;;;;;23.35;50.92;100052.72;7309083;19;130303;-35
2023/03/02 10:28:00;;;;;;;9.20;1.58;;;;;;;23.37;51.20;100035.03;7311901;19;128923;-36
2023/03/02 10:30:34;;;;;;;48.22;3.45;;;;;;;23.36;50.64;100022.88;7312381;19;130157;-39
2023/03/02 10:33:17;;;;;;;56.10;4.18;;;;;;;23.50;50.80;100026.88;7311334;19;130422;-42
2023/03/02 10:35:48;;;;;;;51.35;3.63;;;;;;;23.63;50.73;100033.47;7311645;19;129421;-39
2023/03/02 10:38:21;;;;;;;29.15;2.60;;;;;;;23.72;50.68;100029.97;7312999;19;128794;-38
2023/03/02 10:40:55;;;;;;;37.42;3.10;;;;;;;23.83;50.05;100034.25;7312217;19;129467;-37
2023/03/02 10:43:35;;;;;;;29.35;2.42;;;;;;;23.91;50.37;100029.94;7310668;19;131184;-38
2023/03/02 10:46:07;;;;;;;32.72;2.75;;;;;;;23.87;49.94;100014.59;7312569;19;129802;-39
2023/03/02 10:48:46;;;;;;;23.13;2.45;;;;;;;23.96;49.95;100026.88;7310262;19;129411;-36
2023/03/02 10:51:30;;;;;;;67.78;4.28;;;;;;;23.88;49.73;100030.19;7311251;19;129461;-40
2023/03/02 10:54:25;;;;;;;49.65;3.47;;;;;;;23.77;50.03;100025.13;7312111;19;129305;-42
2023/03/02 10:56:53;;;;;;;69.63;4.57;;;;;;;23.70;49.95;100038.97;7306964;19;129052;-34
2023/03/02 10:59:25;;;;;;;17.92;2.53;;;;;;;23.55;50.32;100028.06;7311057;19;129198;-40
2023/03/02 11:02:16;;;;;;;33.30;2.92;;;;;;;23.43;51.26;100028.41;7312660;19;129454;-40
2023/03/02 11:04:42;;;;;;;36.78;2.80;;;;;;;23.19;51.14;100005.19;7310497;19;129388;-44
2023/03/02 11:07:19;;;;;;;36.90;2.70;;;;;;;23.23;51.19;100027.56;7316425;19;128980;-43
2023/03/02 11:10:06;;;;;;;30.70;2.45;;;;;;;23.17;51.73;100018.44;7316519;19;129019;-41
2023/03/02 11:12:35;;;;;;;43.70;3.30;;;;;;;23.20;52.02;100022.59;7318007;19;130151;-45
2023/03/02 11:15:24;;;;;;;80.70;5.03;;;;;;;23.22;51.84;100004.94;7315247;19;130028;-41